createdAt,value
2018-08-30T00:01:43.773Z,99585.00
2018-08-30T00:04:15.340Z,99572.00
2018-08-30T00:06:46.928Z,99571.00
2018-08-30T00:09:18.521Z,99576.00
2018-08-30T00:11:50.506Z,99570.00
2018-08-30T00:14:22.263Z,99577.00
2018-08-30T00:16:54.121Z,99580.00
2018-08-30T00:19:25.387Z,99582.00
2018-08-30T00:22:03.123Z,99583.00
2018-08-30T00:24:34.870Z,99584.00
2018-08-30T00:27:05.587Z,99583.00
2018-08-30T00:29:37.324Z,99583.00
2018-08-30T00:32:08.786Z,99580.00
2018-08-30T00:34:40.843Z,99582.00
2018-08-30T00:37:13.319Z,99578.00
2018-08-30T00:39:44.737Z,99583.00
2018-08-30T00:42:15.924Z,99580.00
2018-08-30T00:44:47.535Z,99575.00
2018-08-30T00:47:21.122Z,99572.00
2018-08-30T00:49:52.669Z,99570.00
2018-08-30T00:52:24.257Z,99568.00
2018-08-30T00:54:56.086Z,99572.00
2018-08-30T00:57:28.077Z,99567.00
2018-08-30T01:00:00.682Z,99568.00
2018-08-30T01:02:32.340Z,99572.00
2018-08-30T01:05:04.043Z,99572.00
2018-08-30T01:07:35.406Z,99574.00
2018-08-30T01:10:06.844Z,99572.00
2018-08-30T01:12:44.244Z,99567.00
2018-08-30T01:15:16.370Z,99565.00
2018-08-30T01:17:48.155Z,99562.00
2018-08-30T01:20:20.366Z,99563.00
2018-08-30T01:22:51.691Z,99561.00
2018-08-30T01:25:23.153Z,99564.00
2018-08-30T01:27:54.438Z,99566.00
2018-08-30T01:30:25.832Z,99562.00
2018-08-30T01:32:57.070Z,99562.00
2018-08-30T01:35:29.157Z,99564.00
2018-08-30T01:38:01.102Z,99568.00
2018-08-30T01:40:32.590Z,99577.00
2018-08-30T01:43:04.655Z,99580.00
2018-08-30T01:45:36.440Z,99571.00
2018-08-30T01:48:07.917Z,99572.00
2018-08-30T01:50:39.563Z,99573.00
2018-08-30T01:53:11.112Z,99573.00
2018-08-30T01:55:42.892Z,99579.00
2018-08-30T01:58:14.765Z,99575.00
2018-08-30T02:00:47.457Z,99569.00
2018-08-30T02:03:19.201Z,99567.00
2018-08-30T02:05:50.571Z,99566.00
2018-08-30T02:08:22.257Z,99569.00
2018-08-30T02:10:53.647Z,99574.00
2018-08-30T02:13:24.296Z,99580.00
2018-08-30T02:15:56.256Z,99582.00
2018-08-30T02:18:28.251Z,99577.00
2018-08-30T02:20:59.803Z,99573.00
2018-08-30T02:23:31.589Z,99571.00
2018-08-30T02:26:03.586Z,99572.00
2018-08-30T02:28:35.623Z,99571.00
2018-08-30T02:31:08.339Z,99571.00
2018-08-30T02:33:43.111Z,99572.00
2018-08-30T02:36:15.688Z,99571.00
2018-08-30T02:38:47.444Z,99573.00
2018-08-30T02:41:20.225Z,99571.00
2018-08-30T02:43:52.309Z,99574.00
2018-08-30T02:46:24.202Z,99573.00
2018-08-30T02:48:56.079Z,99573.00
2018-08-30T02:51:27.207Z,99574.00
2018-08-30T02:53:59.534Z,99570.00
2018-08-30T02:56:32.048Z,99571.00
2018-08-30T02:59:03.747Z,99568.00
2018-08-30T03:01:35.083Z,99571.00
2018-08-30T03:04:07.372Z,99576.00
2018-08-30T03:06:38.849Z,99575.00
2018-08-30T03:09:11.157Z,99575.00
2018-08-30T03:11:43.379Z,99581.00
2018-08-30T03:14:15.689Z,99584.00
2018-08-30T03:16:47.578Z,99585.00
2018-08-30T03:19:19.179Z,99583.00
2018-08-30T03:21:51.081Z,99583.00
2018-08-30T03:24:22.309Z,99587.00
2018-08-30T03:26:54.099Z,99595.00
2018-08-30T03:29:26.079Z,99591.00
2018-08-30T03:31:57.726Z,99596.00
2018-08-30T03:34:28.804Z,99598.00
2018-08-30T03:37:01.087Z,99598.00
2018-08-30T03:39:33.031Z,99596.00
2018-08-30T03:42:05.015Z,99599.00
2018-08-30T03:44:36.957Z,99605.00
2018-08-30T03:47:09.204Z,99603.00
2018-08-30T03:49:41.536Z,99599.00
2018-08-30T03:52:13.447Z,99590.00
2018-08-30T03:54:46.378Z,99591.00
2018-08-30T03:57:16.650Z,99592.00
2018-08-30T03:59:47.587Z,99596.00
2018-08-30T04:02:17.854Z,99596.00
2018-08-30T04:04:48.159Z,99600.00
2018-08-30T04:07:18.477Z,99600.00
2018-08-30T04:09:48.644Z,99603.00
2018-08-30T04:12:18.864Z,99606.00
2018-08-30T04:14:49.236Z,99610.00
2018-08-30T04:17:19.355Z,99612.00
2018-08-30T04:19:49.613Z,99615.00
2018-08-30T04:22:20.022Z,99614.00
2018-08-30T04:24:50.209Z,99614.00
2018-08-30T04:27:20.376Z,99616.00
2018-08-30T04:29:50.628Z,99616.00
2018-08-30T04:32:20.893Z,99618.00
2018-08-30T04:34:51.162Z,99617.00
2018-08-30T04:37:21.170Z,99614.00
2018-08-30T04:39:51.326Z,99619.00
2018-08-30T04:42:22.186Z,99616.00
2018-08-30T04:44:52.555Z,99622.00
2018-08-30T04:47:22.834Z,99621.00
2018-08-30T04:49:53.053Z,99624.00
2018-08-30T04:52:23.466Z,99627.00
2018-08-30T04:54:54.006Z,99623.00
2018-08-30T04:57:24.118Z,99626.00
2018-08-30T04:59:54.325Z,99616.00
2018-08-30T05:02:24.635Z,99623.00
2018-08-30T05:04:55.068Z,99628.00
2018-08-30T05:07:25.471Z,99634.00
2018-08-30T05:09:56.775Z,99635.00
2018-08-30T05:12:27.096Z,99639.00
2018-08-30T05:14:57.371Z,99636.00
2018-08-30T05:17:28.347Z,99631.00
2018-08-30T05:19:58.653Z,99627.00
2018-08-30T05:22:28.928Z,99626.00
2018-08-30T05:24:59.126Z,99633.00
2018-08-30T05:27:29.098Z,99631.00
2018-08-30T05:29:59.044Z,99636.00
2018-08-30T05:32:29.189Z,99630.00
2018-08-30T05:34:59.489Z,99627.00
2018-08-30T05:37:29.589Z,99628.00
2018-08-30T05:39:59.812Z,99622.00
2018-08-30T05:42:30.173Z,99615.00
2018-08-30T05:45:00.500Z,99609.00
2018-08-30T05:47:30.802Z,99616.00
2018-08-30T05:50:01.449Z,99615.00
2018-08-30T05:52:31.692Z,99613.00
2018-08-30T05:55:02.266Z,99613.00
2018-08-30T05:57:32.049Z,99611.00
2018-08-30T06:00:02.431Z,99609.00
2018-08-30T06:02:32.235Z,99610.00
2018-08-30T06:05:02.161Z,99609.00
2018-08-30T06:07:32.250Z,99602.00
2018-08-30T06:10:02.142Z,99603.00
2018-08-30T06:12:31.985Z,99599.00
2018-08-30T06:15:01.882Z,99597.00
2018-08-30T06:17:31.662Z,99601.00
2018-08-30T06:20:01.474Z,99604.00
2018-08-30T06:22:31.445Z,99604.00
2018-08-30T06:25:01.353Z,99605.00
2018-08-30T06:27:31.117Z,99603.00
2018-08-30T06:30:01.700Z,99609.00
2018-08-30T06:32:31.807Z,99606.00
2018-08-30T06:35:01.800Z,99609.00
2018-08-30T06:37:31.813Z,99612.00
2018-08-30T06:40:01.644Z,99604.00
2018-08-30T06:42:31.690Z,99609.00
2018-08-30T06:45:01.609Z,99611.00
2018-08-30T06:47:31.587Z,99610.00
2018-08-30T06:50:01.489Z,99610.00
2018-08-30T06:52:31.380Z,99609.00
2018-08-30T06:55:01.373Z,99614.00
2018-08-30T06:57:31.191Z,99614.00
2018-08-30T07:00:00.948Z,99619.00
2018-08-30T07:02:30.825Z,99613.00
2018-08-30T07:05:00.886Z,99612.00
2018-08-30T07:07:30.829Z,99613.00
2018-08-30T07:10:00.851Z,99620.00
2018-08-30T07:12:30.801Z,99617.00
2018-08-30T07:15:00.812Z,99617.00
2018-08-30T07:17:30.546Z,99617.00
2018-08-30T07:20:00.424Z,99622.00
2018-08-30T07:22:30.532Z,99631.00
2018-08-30T07:25:00.401Z,99633.00
2018-08-30T07:27:30.150Z,99625.00
2018-08-30T07:29:59.964Z,99620.00
2018-08-30T07:32:30.087Z,99618.00
2018-08-30T07:35:00.106Z,99616.00
2018-08-30T07:37:29.883Z,99620.00
2018-08-30T07:39:59.625Z,99625.00
2018-08-30T07:42:29.534Z,99618.00
2018-08-30T07:44:59.404Z,99616.00
2018-08-30T07:47:29.185Z,99617.00
2018-08-30T07:49:59.094Z,99612.00
2018-08-30T07:52:29.078Z,99612.00
2018-08-30T07:54:59.127Z,99611.00
2018-08-30T07:57:29.423Z,99607.00
2018-08-30T07:59:59.620Z,99614.00
2018-08-30T08:02:29.886Z,99610.00
2018-08-30T08:05:00.082Z,99606.00
2018-08-30T08:07:30.544Z,99605.00
2018-08-30T08:10:00.819Z,99598.00
2018-08-30T08:12:31.059Z,99603.00
2018-08-30T08:15:01.306Z,99601.00
2018-08-30T08:17:31.531Z,99605.00
2018-08-30T08:20:01.615Z,99613.00
2018-08-30T08:22:31.964Z,99614.00
2018-08-30T08:25:02.426Z,99610.00
2018-08-30T08:27:32.648Z,99607.00
2018-08-30T08:30:03.031Z,99605.00
2018-08-30T08:32:33.385Z,99606.00
2018-08-30T08:35:03.568Z,99599.00
2018-08-30T08:37:33.765Z,99598.00
2018-08-30T08:40:03.939Z,99592.00
2018-08-30T08:42:34.328Z,99584.00
2018-08-30T08:45:04.832Z,99580.00
2018-08-30T08:47:35.144Z,99573.00
2018-08-30T08:50:05.290Z,99571.00
2018-08-30T08:52:35.561Z,99568.00
2018-08-30T08:55:05.940Z,99569.00
2018-08-30T08:57:36.220Z,99559.00
2018-08-30T09:00:06.484Z,99560.00
2018-08-30T09:02:36.749Z,99565.00
2018-08-30T09:05:07.269Z,99567.00
2018-08-30T09:07:37.590Z,99567.00
2018-08-30T09:10:08.157Z,99562.00
2018-08-30T09:12:38.385Z,99562.00
2018-08-30T09:15:09.064Z,99558.00
2018-08-30T09:17:39.155Z,99556.00
2018-08-30T09:20:09.301Z,99562.00
2018-08-30T09:22:39.456Z,99556.00
2018-08-30T09:25:09.677Z,99552.00
2018-08-30T09:27:39.907Z,99555.00
2018-08-30T09:30:10.378Z,99550.00
2018-08-30T09:32:41.352Z,99545.00
2018-08-30T09:35:11.534Z,99543.00
2018-08-30T09:37:41.646Z,99532.00
2018-08-30T09:40:11.892Z,99533.00
2018-08-30T09:42:42.258Z,99530.00
2018-08-30T09:45:12.529Z,99534.00
2018-08-30T09:47:42.808Z,99534.00
2018-08-30T09:50:13.215Z,99526.00
2018-08-30T09:52:43.502Z,99526.00
2018-08-30T09:55:13.977Z,99526.00
2018-08-30T09:57:44.053Z,99514.00
2018-08-30T10:00:14.967Z,99516.00
2018-08-30T10:02:50.204Z,99512.00
2018-08-30T10:05:20.621Z,99512.00
2018-08-30T10:07:50.813Z,99510.00
2018-08-30T10:10:20.982Z,99502.00
2018-08-30T10:12:51.149Z,99505.00
2018-08-30T10:15:21.650Z,99501.00
2018-08-30T10:17:51.856Z,99503.00
2018-08-30T10:20:21.996Z,99499.00
2018-08-30T10:22:52.451Z,99501.00
2018-08-30T10:25:22.736Z,99495.00
2018-08-30T10:27:53.051Z,99494.00
2018-08-30T10:30:23.141Z,99491.00
2018-08-30T10:32:52.900Z,99485.00
2018-08-30T10:35:22.721Z,99487.00
2018-08-30T10:37:52.559Z,99485.00
2018-08-30T10:40:22.461Z,99477.00
2018-08-30T10:42:52.269Z,99476.00
2018-08-30T10:45:22.108Z,99472.00
2018-08-30T10:47:51.912Z,99468.00
2018-08-30T10:50:22.553Z,99467.00
2018-08-30T10:52:53.468Z,99466.00
2018-08-30T10:55:23.328Z,99466.00
2018-08-30T10:57:53.613Z,99465.00
2018-08-30T11:00:23.407Z,99467.00
2018-08-30T11:02:53.189Z,99464.00
2018-08-30T11:05:23.134Z,99469.00
2018-08-30T11:07:52.947Z,99468.00
2018-08-30T11:10:22.812Z,99468.00
2018-08-30T11:12:52.601Z,99469.00
2018-08-30T11:15:23.265Z,99464.00
2018-08-30T11:17:53.386Z,99464.00
2018-08-30T11:20:23.202Z,99459.00
2018-08-30T11:22:53.013Z,99451.00
2018-08-30T11:25:23.091Z,99449.00
2018-08-30T11:27:52.954Z,99440.00
2018-08-30T11:30:23.079Z,99443.00
2018-08-30T11:32:53.073Z,99430.00
2018-08-30T11:35:23.137Z,99433.00
2018-08-30T11:37:53.027Z,99421.00
2018-08-30T11:40:22.947Z,99417.00
2018-08-30T11:42:53.004Z,99413.00
2018-08-30T11:45:22.990Z,99409.00
2018-08-30T11:47:52.921Z,99405.00
2018-08-30T11:50:22.881Z,99412.00
2018-08-30T11:52:52.752Z,99409.00
2018-08-30T11:55:22.810Z,99407.00
2018-08-30T11:57:52.691Z,99399.00
2018-08-30T12:00:22.643Z,99400.00
2018-08-30T12:02:52.760Z,99401.00
2018-08-30T12:05:22.804Z,99411.00
2018-08-30T12:07:52.740Z,99405.00
2018-08-30T12:10:22.939Z,99404.00
2018-08-30T12:12:52.858Z,99405.00
2018-08-30T12:15:22.843Z,99399.00
2018-08-30T12:17:53.043Z,99398.00
2018-08-30T12:20:23.313Z,99399.00
2018-08-30T12:22:53.612Z,99384.00
2018-08-30T12:25:24.072Z,99379.00
2018-08-30T12:27:54.213Z,99379.00
2018-08-30T12:30:24.390Z,99379.00
2018-08-30T12:32:55.216Z,99374.00
2018-08-30T12:35:25.828Z,99367.00
2018-08-30T12:37:55.857Z,99365.00
2018-08-30T12:40:25.961Z,99361.00
2018-08-30T12:42:56.214Z,99364.00
2018-08-30T12:45:26.217Z,99363.00
2018-08-30T12:47:56.300Z,99360.00
2018-08-30T12:50:27.134Z,99364.00
2018-08-30T12:52:57.708Z,99356.00
2018-08-30T12:55:29.170Z,99362.00
2018-08-30T12:57:59.408Z,99365.00
2018-08-30T13:00:29.378Z,99361.00
2018-08-30T13:02:59.507Z,99363.00
2018-08-30T13:05:30.187Z,99358.00
2018-08-30T13:08:00.187Z,99364.00
2018-08-30T13:10:30.271Z,99360.00
2018-08-30T13:13:00.646Z,99363.00
2018-08-30T13:15:30.723Z,99364.00
2018-08-30T13:18:00.475Z,99361.00
2018-08-30T13:20:30.467Z,99362.00
2018-08-30T13:23:00.671Z,99364.00
2018-08-30T13:25:30.940Z,99363.00
2018-08-30T13:28:00.804Z,99361.00
2018-08-30T13:30:31.371Z,99355.00
2018-08-30T13:33:01.356Z,99352.00
2018-08-30T13:35:31.526Z,99355.00
2018-08-30T13:38:01.708Z,99354.00
2018-08-30T13:40:31.584Z,99353.00
2018-08-30T13:43:01.954Z,99353.00
2018-08-30T13:45:32.301Z,99349.00
2018-08-30T13:48:02.839Z,99351.00
2018-08-30T13:50:32.936Z,99350.00
2018-08-30T13:53:03.232Z,99355.00
2018-08-30T13:55:33.433Z,99354.00
2018-08-30T13:58:03.563Z,99353.00
2018-08-30T14:00:33.875Z,99354.00
2018-08-30T14:03:03.512Z,99349.00
2018-08-30T14:05:33.965Z,99353.00
2018-08-30T14:08:04.082Z,99349.00
2018-08-30T14:10:34.082Z,99350.00
2018-08-30T14:13:04.115Z,99352.00
2018-08-30T14:15:34.143Z,99345.00
2018-08-30T14:18:03.681Z,99341.00
2018-08-30T14:20:33.724Z,99344.00
2018-08-30T14:23:03.874Z,99349.00
2018-08-30T14:25:33.972Z,99346.00
2018-08-30T14:28:03.843Z,99347.00
2018-08-30T14:30:33.789Z,99347.00
2018-08-30T14:33:03.675Z,99345.00
2018-08-30T14:35:33.888Z,99349.00
2018-08-30T14:38:03.548Z,99346.00
2018-08-30T14:40:33.684Z,99351.00
2018-08-30T14:43:03.607Z,99350.00
2018-08-30T14:45:33.603Z,99348.00
2018-08-30T14:48:03.728Z,99350.00
2018-08-30T14:50:33.592Z,99350.00
2018-08-30T14:53:03.660Z,99349.00
2018-08-30T14:55:33.746Z,99346.00
2018-08-30T14:58:03.541Z,99345.00
2018-08-30T15:00:33.388Z,99355.00
2018-08-30T15:03:03.422Z,99346.00
2018-08-30T15:05:33.382Z,99347.00
2018-08-30T15:08:03.309Z,99350.00
2018-08-30T15:10:33.670Z,99350.00
2018-08-30T15:13:04.074Z,99350.00
2018-08-30T15:15:33.989Z,99347.00
2018-08-30T15:18:03.782Z,99346.00
2018-08-30T15:20:33.686Z,99343.00
2018-08-30T15:23:03.750Z,99346.00
2018-08-30T15:25:33.770Z,99342.00
2018-08-30T15:28:03.813Z,99346.00
2018-08-30T15:30:33.762Z,99353.00
2018-08-30T15:33:04.047Z,99347.00
2018-08-30T15:35:34.146Z,99349.00
2018-08-30T15:38:04.036Z,99350.00
2018-08-30T15:40:33.862Z,99349.00
2018-08-30T15:43:04.138Z,99351.00
2018-08-30T15:45:34.309Z,99346.00
2018-08-30T15:48:04.475Z,99349.00
2018-08-30T15:50:34.374Z,99350.00
2018-08-30T15:53:04.513Z,99352.00
2018-08-30T15:55:34.340Z,99354.00
2018-08-30T15:58:04.269Z,99355.00
2018-08-30T16:00:34.056Z,99353.00
2018-08-30T16:03:04.005Z,99350.00
2018-08-30T16:05:33.981Z,99349.00
2018-08-30T16:08:03.848Z,99347.00
2018-08-30T16:10:33.737Z,99356.00
2018-08-30T16:13:03.635Z,99356.00
2018-08-30T16:15:33.517Z,99363.00
2018-08-30T16:18:03.270Z,99365.00
2018-08-30T16:20:33.001Z,99369.00
2018-08-30T16:23:07.277Z,99372.00
2018-08-30T16:25:37.240Z,99370.00
2018-08-30T16:28:07.132Z,99375.00
2018-08-30T16:30:37.117Z,99375.00
2018-08-30T16:33:07.027Z,99378.00
2018-08-30T16:35:36.928Z,99376.00
2018-08-30T16:38:06.977Z,99380.00
2018-08-30T16:40:37.184Z,99375.00
2018-08-30T16:43:07.459Z,99383.00
2018-08-30T16:45:37.659Z,99387.00
2018-08-30T16:48:08.951Z,99386.00
2018-08-30T16:50:39.433Z,99387.00
2018-08-30T16:53:09.696Z,99390.00
2018-08-30T16:55:40.115Z,99395.00
2018-08-30T16:58:10.286Z,99397.00
2018-08-30T17:00:40.361Z,99400.00
2018-08-30T17:03:10.745Z,99403.00
2018-08-30T17:05:40.905Z,99408.00
2018-08-30T17:08:11.302Z,99412.00
2018-08-30T17:10:41.481Z,99408.00
2018-08-30T17:13:11.676Z,99412.00
2018-08-30T17:15:41.928Z,99413.00
2018-08-30T17:18:11.862Z,99413.00
2018-08-30T17:20:50.114Z,99416.00
2018-08-30T17:23:20.606Z,99419.00
2018-08-30T17:25:50.828Z,99425.00
2018-08-30T17:28:20.968Z,99425.00
2018-08-30T17:30:51.500Z,99432.00
2018-08-30T17:33:22.220Z,99432.00
2018-08-30T17:35:52.530Z,99432.00
2018-08-30T17:38:22.554Z,99432.00
2018-08-30T17:40:52.710Z,99436.00
2018-08-30T17:43:23.043Z,99445.00
2018-08-30T17:45:53.266Z,99447.00
2018-08-30T17:48:23.521Z,99450.00
2018-08-30T17:50:53.657Z,99454.00
2018-08-30T17:53:23.956Z,99450.00
2018-08-30T17:55:54.302Z,99464.00
2018-08-30T17:58:24.485Z,99460.00
2018-08-30T18:00:54.655Z,99470.00
2018-08-30T18:03:24.870Z,99476.00
2018-08-30T18:05:55.233Z,99480.00
2018-08-30T18:08:25.273Z,99483.00
2018-08-30T18:10:55.568Z,99487.00
2018-08-30T18:13:25.789Z,99491.00
2018-08-30T18:15:56.087Z,99495.00
2018-08-30T18:18:26.247Z,99500.00
2018-08-30T18:20:56.662Z,99507.00
2018-08-30T18:23:26.854Z,99506.00
2018-08-30T18:25:57.078Z,99506.00
2018-08-30T18:28:27.283Z,99515.00
2018-08-30T18:30:57.414Z,99515.00
2018-08-30T18:33:27.588Z,99518.00
2018-08-30T18:35:57.835Z,99521.00
2018-08-30T18:38:27.928Z,99524.00
2018-08-30T18:40:58.098Z,99525.00
2018-08-30T18:43:28.697Z,99523.00
2018-08-30T18:45:59.038Z,99523.00
2018-08-30T18:48:29.316Z,99520.00
2018-08-30T18:50:59.661Z,99526.00
2018-08-30T18:53:30.073Z,99529.00
2018-08-30T18:56:00.406Z,99526.00
2018-08-30T18:58:30.927Z,99534.00
2018-08-30T19:01:01.643Z,99536.00
2018-08-30T19:03:31.984Z,99539.00
2018-08-30T19:06:02.374Z,99543.00
2018-08-30T19:08:33.568Z,99545.00
2018-08-30T19:11:03.997Z,99543.00
2018-08-30T19:13:34.229Z,99543.00
2018-08-30T19:16:09.444Z,99551.00
2018-08-30T19:18:44.553Z,99563.00
2018-08-30T19:21:14.604Z,99560.00
2018-08-30T19:23:45.116Z,99559.00
2018-08-30T19:26:15.617Z,99566.00
2018-08-30T19:28:45.686Z,99565.00
2018-08-30T19:31:16.116Z,99564.00
2018-08-30T19:33:46.403Z,99565.00
2018-08-30T19:36:21.553Z,99571.00
2018-08-30T19:38:51.763Z,99570.00
2018-08-30T19:41:22.787Z,99571.00
2018-08-30T19:43:53.926Z,99572.00
2018-08-30T19:46:24.967Z,99571.00
2018-08-30T19:48:55.225Z,99574.00
2018-08-30T19:51:26.197Z,99576.00
2018-08-30T19:53:57.826Z,99573.00
2018-08-30T19:56:28.050Z,99573.00
2018-08-30T19:58:58.179Z,99576.00
2018-08-30T20:01:28.245Z,99580.00
2018-08-30T20:03:59.450Z,99583.00
2018-08-30T20:06:29.829Z,99587.00
2018-08-30T20:09:00.838Z,99589.00
2018-08-30T20:11:32.212Z,99589.00
2018-08-30T20:14:02.352Z,99586.00
2018-08-30T20:16:32.457Z,99590.00
2018-08-30T20:19:02.716Z,99591.00
2018-08-30T20:21:32.800Z,99599.00
2018-08-30T20:24:03.035Z,99599.00
2018-08-30T20:26:33.363Z,99600.00
2018-08-30T20:29:03.644Z,99605.00
2018-08-30T20:31:33.902Z,99603.00
2018-08-30T20:34:04.061Z,99608.00
2018-08-30T20:36:34.323Z,99610.00
2018-08-30T20:39:05.579Z,99608.00
2018-08-30T20:41:35.955Z,99613.00
2018-08-30T20:44:06.533Z,99615.00
2018-08-30T20:46:36.645Z,99616.00
2018-08-30T20:49:07.272Z,99615.00
2018-08-30T20:51:37.813Z,99619.00
2018-08-30T20:54:08.017Z,99616.00
2018-08-30T20:56:38.262Z,99617.00
2018-08-30T20:59:08.477Z,99628.00
2018-08-30T21:01:38.754Z,99624.00
2018-08-30T21:04:08.902Z,99623.00
2018-08-30T21:06:39.801Z,99619.00
2018-08-30T21:09:10.602Z,99622.00
2018-08-30T21:11:41.056Z,99617.00
2018-08-30T21:14:11.428Z,99626.00
2018-08-30T21:16:42.959Z,99626.00
2018-08-30T21:19:14.400Z,99634.00
2018-08-30T21:21:44.944Z,99632.00
2018-08-30T21:24:16.370Z,99625.00
2018-08-30T21:26:48.246Z,99630.00
2018-08-30T21:29:19.274Z,99636.00
2018-08-30T21:31:50.820Z,99638.00
2018-08-30T21:34:22.091Z,99634.00
2018-08-30T21:36:53.531Z,99637.00
2018-08-30T21:39:24.756Z,99645.00
2018-08-30T21:41:56.105Z,99650.00
2018-08-30T21:44:27.929Z,99648.00
2018-08-30T21:46:59.509Z,99653.00
2018-08-30T21:49:30.960Z,99653.00
2018-08-30T21:52:02.541Z,99651.00
2018-08-30T21:54:33.976Z,99654.00
2018-08-30T21:57:05.063Z,99652.00
2018-08-30T21:59:36.680Z,99653.00
2018-08-30T22:02:08.194Z,99655.00
2018-08-30T22:04:39.155Z,99658.00
2018-08-30T22:07:10.654Z,99660.00
2018-08-30T22:09:42.129Z,99662.00
2018-08-30T22:12:13.635Z,99658.00
2018-08-30T22:14:44.818Z,99656.00
2018-08-30T22:17:16.065Z,99661.00
2018-08-30T22:19:47.522Z,99664.00
2018-08-30T22:22:19.047Z,99667.00
2018-08-30T22:24:50.329Z,99667.00
2018-08-30T22:27:21.509Z,99663.00
2018-08-30T22:29:53.277Z,99667.00
2018-08-30T22:32:24.503Z,99661.00
2018-08-30T22:34:56.222Z,99667.00
2018-08-30T22:37:27.630Z,99668.00
2018-08-30T22:39:58.734Z,99673.00
2018-08-30T22:42:30.242Z,99674.00
2018-08-30T22:45:02.508Z,99681.00
2018-08-30T22:47:35.076Z,99680.00
2018-08-30T22:50:07.360Z,99676.00
2018-08-30T22:52:39.412Z,99672.00
2018-08-30T22:55:11.097Z,99674.00
2018-08-30T22:57:42.651Z,99669.00
2018-08-30T23:00:14.359Z,99663.00
2018-08-30T23:02:46.229Z,99664.00
2018-08-30T23:05:17.611Z,99672.00
2018-08-30T23:07:49.165Z,99671.00
2018-08-30T23:10:21.227Z,99666.00
2018-08-30T23:12:52.499Z,99662.00
2018-08-30T23:15:24.097Z,99669.00
2018-08-30T23:17:55.633Z,99666.00
2018-08-30T23:20:27.031Z,99669.00
2018-08-30T23:22:59.170Z,99668.00
2018-08-30T23:25:30.868Z,99671.00
2018-08-30T23:28:03.335Z,99669.00
2018-08-30T23:30:35.486Z,99666.00
2018-08-30T23:33:07.535Z,99667.00
2018-08-30T23:35:39.073Z,99669.00
2018-08-30T23:38:10.972Z,99670.00
2018-08-30T23:40:43.085Z,99677.00
2018-08-30T23:43:14.804Z,99683.00
2018-08-30T23:45:46.416Z,99678.00
2018-08-30T23:48:18.113Z,99673.00
2018-08-30T23:50:49.660Z,99672.00
2018-08-30T23:53:21.372Z,99676.00
2018-08-30T23:55:53.145Z,99669.00
2018-08-30T23:59:36.134Z,99674.00
